createdAt,value
2017-04-24T00:00:44.535Z,1.67
2017-04-24T00:01:33.532Z,1.64
2017-04-24T00:02:22.266Z,1.68
2017-04-24T00:03:13.313Z,1.66
2017-04-24T00:04:02.341Z,1.6
2017-04-24T00:04:53.195Z,1.66
2017-04-24T00:05:42.191Z,1.63
2017-04-24T00:06:33.773Z,1.63
2017-04-24T00:07:23.651Z,1.61
2017-04-24T00:08:13.679Z,1.56
2017-04-24T00:09:03.327Z,1.64
2017-04-24T00:09:53.598Z,1.57
2017-04-24T00:10:42.285Z,1.57
2017-04-24T00:13:10.513Z,1.52
2017-04-24T00:14:00.750Z,1.57
2017-04-24T00:14:54.604Z,1.56
2017-04-24T00:20:33.514Z,1.49
2017-04-24T00:26:22.786Z,1.5
2017-04-24T00:27:16.042Z,1.49
2017-04-24T00:28:08.220Z,1.49
2017-04-24T00:30:27.356Z,1.5
2017-04-24T00:31:18.175Z,1.5
2017-04-24T00:32:07.135Z,1.5
2017-04-24T00:32:55.418Z,1.53
2017-04-24T00:33:44.253Z,1.49
2017-04-24T00:46:11.870Z,1.32
2017-04-24T01:09:57.116Z,1.27
2017-04-24T01:10:49.564Z,1.3
2017-04-24T01:11:39.876Z,1.21
2017-04-24T01:12:30.532Z,1.21
2017-04-24T01:13:22.727Z,1.16
2017-04-24T01:14:13.459Z,1.22
2017-04-24T01:15:04.551Z,1.31
2017-04-24T01:15:53.319Z,1.28
2017-04-24T01:16:45.933Z,1.28
2017-04-24T01:17:36.384Z,1.22
2017-04-24T01:18:24.444Z,1.24
2017-04-24T01:19:14.305Z,1.25
2017-04-24T01:20:08.271Z,1.22
2017-04-24T01:20:58.375Z,1.18
2017-04-24T01:21:49.449Z,1.18
2017-04-24T01:22:38.208Z,1.16
2017-04-24T01:23:29.169Z,1.16
2017-04-24T01:24:17.477Z,1.14
2017-04-24T01:25:06.648Z,1.13
2017-04-24T01:25:57.001Z,1.13
2017-04-24T01:26:46.970Z,1.1
2017-04-24T01:27:35.898Z,1
2017-04-24T01:28:31.545Z,1.03
2017-04-24T01:29:25.585Z,1.04
2017-04-24T01:30:16.375Z,1.02
2017-04-24T01:31:06.534Z,0.99
2017-04-24T01:32:01.222Z,1
2017-04-24T01:32:53.889Z,1.02
2017-04-24T01:33:42.735Z,1
2017-04-24T01:34:33.491Z,1
2017-04-24T01:35:24.694Z,1.03
2017-04-24T01:36:14.599Z,0.94
2017-04-24T01:37:06.582Z,1
2017-04-24T01:37:56.929Z,1.07
2017-04-24T01:38:46.182Z,1.02
2017-04-24T01:39:46.222Z,1.04
2017-04-24T01:40:36.929Z,0.95
2017-04-24T01:41:26.711Z,1
2017-04-24T01:42:15.749Z,1.04
2017-04-24T01:43:11.368Z,0.96
2017-04-24T01:44:01.640Z,1.03
2017-04-24T01:44:53.900Z,1
2017-04-24T01:45:43.091Z,1.03
2017-04-24T01:46:32.149Z,0.94
2017-04-24T01:47:20.570Z,0.95
2017-04-24T01:48:11.733Z,0.95
2017-04-24T01:49:01.370Z,0.91
2017-04-24T01:49:50.073Z,0.91
2017-04-24T01:50:39.791Z,0.86
2017-04-24T01:51:28.858Z,0.85
2017-04-24T01:52:17.397Z,1
2017-04-24T01:53:06.932Z,0.86
2017-04-24T01:53:55.840Z,0.81
2017-04-24T01:54:44.558Z,0.91
2017-04-24T01:55:32.758Z,0.89
2017-04-24T01:56:22.585Z,0.84
2017-04-24T01:57:11.940Z,0.94
2017-04-24T01:58:00.718Z,0.84
2017-04-24T01:58:49.596Z,0.91
2017-04-24T01:59:39.164Z,0.92
2017-04-24T02:00:28.314Z,0.86
2017-04-24T02:01:17.044Z,0.94
2017-04-24T02:02:05.345Z,0.84
2017-04-24T02:02:53.977Z,0.86
2017-04-24T02:03:43.303Z,0.92
2017-04-24T02:04:32.289Z,0.86
2017-04-24T02:05:20.555Z,0.91
2017-04-24T02:06:09.391Z,0.89
2017-04-24T02:06:57.864Z,0.86
2017-04-24T02:07:46.527Z,0.78
2017-04-24T02:08:35.634Z,0.85
2017-04-24T02:09:23.935Z,0.84
2017-04-24T02:10:13.017Z,0.77
2017-04-24T02:11:01.840Z,0.86
2017-04-24T02:11:50.976Z,0.84
2017-04-24T02:12:39.333Z,0.91
2017-04-24T02:13:27.888Z,0.84
2017-04-24T02:14:16.837Z,0.77
2017-04-24T02:15:05.443Z,0.84
2017-04-24T02:15:54.392Z,0.78
2017-04-24T02:16:42.912Z,0.82
2017-04-24T02:17:31.392Z,0.88
2017-04-24T02:18:19.970Z,0.77
2017-04-24T02:19:08.490Z,0.85
2017-04-24T02:19:58.683Z,0.82
2017-04-24T02:20:47.864Z,0.84
2017-04-24T02:21:37.380Z,0.81
2017-04-24T02:22:26.948Z,0.74
2017-04-24T02:23:15.018Z,0.71
2017-04-24T02:24:05.234Z,0.73
2017-04-24T02:24:55.982Z,0.7
2017-04-24T02:25:47.081Z,0.71
2017-04-24T02:26:36.332Z,0.71
2017-04-24T02:27:25.614Z,0.63
2017-04-24T02:28:16.353Z,0.7
2017-04-24T02:29:04.900Z,0.67
2017-04-24T02:29:54.547Z,0.7
2017-04-24T02:30:45.432Z,0.73
2017-04-24T02:31:36.949Z,0.74
2017-04-24T02:32:26.567Z,0.67
2017-04-24T02:33:15.731Z,0.63
2017-04-24T02:34:07.928Z,0.7
2017-04-24T02:34:57.920Z,0.7
2017-04-24T02:35:47.866Z,0.64
2017-04-24T02:36:37.765Z,0.66
2017-04-24T02:37:28.270Z,0.67
2017-04-24T02:38:20.036Z,0.61
2017-04-24T02:39:09.810Z,0.63
2017-04-24T02:58:32.005Z,0.4
2017-04-24T02:59:20.965Z,0.36
2017-04-24T03:00:09.807Z,0.39
2017-04-24T03:00:58.641Z,0.34
2017-04-24T03:01:47.085Z,0.31
2017-04-24T03:02:35.254Z,0.42
2017-04-24T03:03:24.494Z,0.3
2017-04-24T03:04:12.795Z,0.36
2017-04-24T03:05:02.229Z,0.37
2017-04-24T03:05:50.163Z,0.4
2017-04-24T03:06:38.992Z,0.34
2017-04-24T03:07:28.102Z,0.44
2017-04-24T03:08:16.254Z,0.39
2017-04-24T03:09:04.919Z,0.34
2017-04-24T03:09:53.272Z,0.34
2017-04-24T03:10:41.999Z,0.45
2017-04-24T03:11:32.214Z,0.39
2017-04-24T03:12:21.572Z,0.34
2017-04-24T03:13:11.077Z,0.49
2017-04-24T03:14:03.013Z,0.48
2017-04-24T03:16:22.456Z,0.58
2017-04-24T03:18:29.170Z,0.44
2017-04-24T03:19:39.593Z,0.42
2017-04-24T03:22:37.260Z,0.44
2017-04-24T03:23:27.850Z,0.36
2017-04-24T03:24:17.911Z,0.33
2017-04-24T03:25:06.811Z,0.34
2017-04-24T03:25:54.968Z,0.34
2017-04-24T03:26:47.808Z,0.4
2017-04-24T03:27:36.381Z,0.39
2017-04-24T03:28:25.407Z,0.42
2017-04-24T03:29:13.778Z,0.33
2017-04-24T03:30:02.226Z,0.37
2017-04-24T03:30:50.973Z,0.27
2017-04-24T03:31:40.338Z,0.37
2017-04-24T03:32:28.892Z,0.3
2017-04-24T03:33:17.154Z,0.33
2017-04-24T03:34:05.534Z,0.26
2017-04-24T03:34:54.351Z,0.42
2017-04-24T03:35:45.598Z,0.31
2017-04-24T03:36:35.431Z,0.34
2017-04-24T03:37:23.944Z,0.39
2017-04-24T03:38:13.116Z,0.37
2017-04-24T03:39:01.479Z,0.34
2017-04-24T03:39:50.406Z,0.33
2017-04-24T03:40:39.318Z,0.31
2017-04-24T03:41:19.053Z,0.23
2017-04-24T03:41:59.455Z,0.27
2017-04-24T03:42:44.528Z,0.2
2017-04-24T03:43:34.496Z,0.2
2017-04-24T03:44:14.886Z,0.26
2017-04-24T03:46:02.692Z,0.26
2017-04-24T03:46:46.166Z,0.2
2017-04-24T03:47:27.276Z,0.23
2017-04-24T03:48:08.597Z,0.19
2017-04-24T03:48:48.952Z,0.29
2017-04-24T03:49:29.392Z,0.27
2017-04-24T03:50:09.746Z,0.2
2017-04-24T03:50:50.819Z,0.26
2017-04-24T03:51:31.203Z,0.23
2017-04-24T03:52:12.634Z,0.16
2017-04-24T03:52:53.550Z,0.2
2017-04-24T03:53:36.545Z,0.23
2017-04-24T03:54:17.011Z,0.19
2017-04-24T03:54:57.857Z,0.15
2017-04-24T03:56:50.233Z,0.16
2017-04-24T03:57:38.831Z,0.16
2017-04-24T03:58:27.372Z,0.16
2017-04-24T03:59:19.245Z,0.19
2017-04-24T04:00:09.819Z,0.23
2017-04-24T04:01:02.715Z,0.26
2017-04-24T04:01:51.443Z,0.27
2017-04-24T04:02:39.723Z,0.19
2017-04-24T04:03:28.969Z,0.26
2017-04-24T04:04:18.171Z,0.24
2017-04-24T04:05:06.834Z,0.19
2017-04-24T04:05:55.391Z,0.19
2017-04-24T04:06:44.136Z,0.08
2017-04-24T04:07:33.962Z,0.15
2017-04-24T04:08:22.717Z,0.16
2017-04-24T04:09:10.921Z,0.18
2017-04-24T04:09:59.510Z,0.16
2017-04-24T04:10:48.348Z,0.16
2017-04-24T04:11:36.952Z,0.23
2017-04-24T04:12:25.407Z,0.18
2017-04-24T04:13:14.237Z,0.13
2017-04-24T04:14:03.313Z,0.09
2017-04-24T04:14:52.003Z,0.19
2017-04-24T04:15:40.750Z,0.23
2017-04-24T04:16:29.477Z,0.11
2017-04-24T04:18:52.964Z,0.29
2017-04-24T04:19:44.592Z,0.27
2017-04-24T04:20:33.471Z,0.24
2017-04-24T04:21:23.388Z,0.26
2017-04-24T04:22:11.533Z,0.19
2017-04-24T04:22:59.932Z,0.18
2017-04-24T04:23:49.521Z,0.24
2017-04-24T04:24:37.305Z,0.19
2017-04-24T04:25:26.491Z,0.24
2017-04-24T04:26:14.511Z,0.19
2017-04-24T04:27:03.355Z,0.24
2017-04-24T04:27:51.800Z,0.24
2017-04-24T04:28:40.767Z,0.29
2017-04-24T04:29:29.048Z,0.24
2017-04-24T04:30:17.866Z,0.31
2017-04-24T04:31:06.313Z,0.19
2017-04-24T04:31:55.528Z,0.2
2017-04-24T04:33:46.677Z,0.31
2017-04-24T04:34:35.711Z,0.2
2017-04-24T04:35:24.315Z,0.37
2017-04-24T04:36:12.912Z,0.4
2017-04-24T04:37:01.719Z,0.42
2017-04-24T04:37:50.343Z,0.37
2017-04-24T04:38:39.487Z,0.4
2017-04-24T04:39:27.652Z,0.4
2017-04-24T04:40:16.416Z,0.39
2017-04-24T04:41:05.430Z,0.45
2017-04-24T04:41:54.954Z,0.51
2017-04-24T04:42:43.618Z,0.48
2017-04-24T04:43:32.661Z,0.51
2017-04-24T04:44:20.904Z,0.47
2017-04-24T04:45:09.982Z,0.55
2017-04-24T04:45:58.602Z,0.55
2017-04-24T04:46:47.427Z,0.44
2017-04-24T04:47:35.539Z,0.52
2017-04-24T04:48:24.464Z,0.56
2017-04-24T04:49:12.927Z,0.51
2017-04-24T04:50:01.821Z,0.55
2017-04-24T04:50:50.955Z,0.64
2017-04-24T04:51:39.906Z,0.59
2017-04-24T04:52:28.138Z,0.64
2017-04-24T04:53:16.919Z,0.61
2017-04-24T04:54:05.168Z,0.59
2017-04-24T04:54:54.415Z,0.61
2017-04-24T04:55:42.577Z,0.64
2017-04-24T04:56:32.609Z,0.67
2017-04-24T04:57:20.151Z,0.63
2017-04-24T04:58:08.658Z,0.63
2017-04-24T04:58:57.956Z,0.63
2017-04-24T04:59:46.427Z,0.63
2017-04-24T05:00:35.327Z,0.71
2017-04-24T05:01:24.156Z,0.7
2017-04-24T05:02:12.896Z,0.77
2017-04-24T05:03:01.661Z,0.77
2017-04-24T05:03:49.932Z,0.78
2017-04-24T05:04:38.573Z,0.84
2017-04-24T05:05:27.151Z,0.81
2017-04-24T05:06:17.724Z,0.88
2017-04-24T05:07:05.669Z,0.84
2017-04-24T05:07:54.255Z,0.88
2017-04-24T05:08:43.001Z,0.88
2017-04-24T05:09:31.804Z,0.82
2017-04-24T05:10:20.354Z,0.88
2017-04-24T05:11:09.460Z,0.85
2017-04-24T05:11:58.950Z,0.95
2017-04-24T05:12:48.206Z,1.03
2017-04-24T05:13:37.998Z,0.96
2017-04-24T05:14:26.893Z,0.99
2017-04-24T05:15:15.650Z,1.12
2017-04-24T05:16:06.721Z,1.14
2017-04-24T05:16:55.564Z,1.16
2017-04-24T05:17:45.121Z,1.16
2017-04-24T05:18:34.520Z,1.14
2017-04-24T05:19:23.549Z,1.3
2017-04-24T05:20:12.154Z,1.4
2017-04-24T05:21:00.878Z,1.39
2017-04-24T05:21:50.158Z,1.52
2017-04-24T05:22:38.831Z,1.56
2017-04-24T05:23:29.054Z,1.6
2017-04-24T05:24:18.733Z,1.57
2017-04-24T05:25:07.742Z,1.64
2017-04-24T05:25:55.677Z,1.68
2017-04-24T05:26:48.135Z,1.95
2017-04-24T05:27:36.676Z,1.93
2017-04-24T05:28:26.569Z,2.04
2017-04-24T05:29:16.029Z,2.08
2017-04-24T05:30:05.441Z,2.21
2017-04-24T05:30:54.932Z,2.16
2017-04-24T05:32:47.674Z,2.39
2017-04-24T05:33:36.376Z,2.44
2017-04-24T05:34:25.192Z,2.54
2017-04-24T05:35:14.114Z,2.47
2017-04-24T05:36:02.564Z,2.58
2017-04-24T05:36:51.188Z,2.76
2017-04-24T05:37:39.611Z,2.82
2017-04-24T05:38:28.633Z,2.9
2017-04-24T05:39:17.704Z,2.94
2017-04-24T05:40:06.572Z,3.05
2017-04-24T05:40:54.918Z,3.27
2017-04-24T05:41:43.647Z,3.3
2017-04-24T05:42:32.695Z,3.53
2017-04-24T05:43:21.526Z,3.56
2017-04-24T05:44:09.907Z,3.68
2017-04-24T05:44:59.103Z,3.77
2017-04-24T05:45:47.782Z,3.77
2017-04-24T05:46:36.060Z,3.94
2017-04-24T05:47:24.661Z,4.14
2017-04-24T05:48:13.590Z,4.06
2017-04-24T05:49:02.151Z,4.36
2017-04-24T05:49:50.828Z,4.43
2017-04-24T05:50:39.185Z,4.46
2017-04-24T05:51:28.070Z,4.66
2017-04-24T05:52:16.129Z,4.66
2017-04-24T05:53:05.019Z,4.84
2017-04-24T05:53:54.128Z,4.98
2017-04-24T05:54:42.370Z,5.01
2017-04-24T05:55:31.198Z,5.2
2017-04-24T05:56:19.424Z,5.16
2017-04-24T05:57:08.118Z,5.34
2017-04-24T05:57:56.770Z,5.47
2017-04-24T05:58:45.397Z,5.55
2017-04-24T05:59:34.096Z,5.64
2017-04-24T06:00:23.094Z,5.65
2017-04-24T06:01:11.864Z,5.76
2017-04-24T06:01:59.875Z,5.88
2017-04-24T06:02:48.931Z,5.95
2017-04-24T06:03:37.505Z,6.05
2017-04-24T06:04:26.341Z,6.2
2017-04-24T06:05:14.707Z,6.31
2017-04-24T06:06:03.423Z,6.47
2017-04-24T06:06:52.189Z,6.56
2017-04-24T06:07:41.518Z,6.62
2017-04-24T06:08:29.697Z,6.77
2017-04-24T06:09:19.218Z,6.78
2017-04-24T06:10:07.722Z,6.87
2017-04-24T06:10:56.766Z,6.92
2017-04-24T06:11:45.216Z,7.05
2017-04-24T06:12:34.816Z,7.03
2017-04-24T06:13:24.413Z,7.18
2017-04-24T06:14:13.005Z,7.22
2017-04-24T06:15:02.765Z,7.29
2017-04-24T06:15:51.021Z,7.41
2017-04-24T06:16:40.174Z,7.46
2017-04-24T06:17:29.036Z,7.48
2017-04-24T06:18:18.212Z,7.55
2017-04-24T06:19:06.848Z,7.51
2017-04-24T06:19:56.349Z,7.77
2017-04-24T06:20:44.753Z,7.77
2017-04-24T06:21:33.914Z,7.95
2017-04-24T06:22:23.657Z,7.96
2017-04-24T06:23:12.580Z,8.09
2017-04-24T06:24:02.364Z,8.14
2017-04-24T06:24:50.803Z,8.23
2017-04-24T06:25:40.175Z,8.32
2017-04-24T06:26:30.012Z,8.44
2017-04-24T06:27:19.382Z,8.59
2017-04-24T06:28:07.958Z,8.69
2017-04-24T06:28:57.219Z,8.78
2017-04-24T06:29:45.262Z,8.87
2017-04-24T06:30:27.299Z,8.99
2017-04-24T06:31:07.659Z,8.96
2017-04-24T06:31:48.133Z,9.09
2017-04-24T06:32:30.115Z,9.21
2017-04-24T06:33:10.545Z,9.24
2017-04-24T06:33:52.532Z,9.36
2017-04-24T06:34:32.999Z,9.36
2017-04-24T06:35:14.056Z,9.49
2017-04-24T06:35:56.062Z,9.56
2017-04-24T06:36:40.142Z,9.62
2017-04-24T06:37:20.489Z,9.76
2017-04-24T06:38:00.875Z,9.72
2017-04-24T06:38:43.172Z,9.77
2017-04-24T06:39:25.035Z,9.9
2017-04-24T06:40:05.496Z,9.88
2017-04-24T06:40:45.891Z,10
2017-04-24T06:41:27.649Z,10
2017-04-24T06:42:09.657Z,10.1
2017-04-24T06:42:50.742Z,10.15
2017-04-24T06:43:31.038Z,10.3
2017-04-24T06:44:15.032Z,10.31
2017-04-24T06:44:56.203Z,10.43
2017-04-24T06:45:37.225Z,10.42
2017-04-24T06:46:22.055Z,10.55
2017-04-24T06:47:03.161Z,10.58
2017-04-24T06:47:45.062Z,10.62
2017-04-24T06:48:26.428Z,10.77
2017-04-24T06:49:06.751Z,10.69
2017-04-24T06:49:48.098Z,10.76
2017-04-24T06:50:29.046Z,10.82
2017-04-24T06:51:09.446Z,10.87
2017-04-24T06:51:50.430Z,10.94
2017-04-24T06:52:31.260Z,11.05
2017-04-24T06:53:11.712Z,11.08
2017-04-24T06:53:52.104Z,11.13
2017-04-24T06:54:33.290Z,11.23
2017-04-24T06:55:15.570Z,11.34
2017-04-24T06:55:55.981Z,11.35
2017-04-24T06:56:37.187Z,11.49
2017-04-24T06:57:17.643Z,11.51
2017-04-24T06:57:58.046Z,11.6
2017-04-24T06:58:40.248Z,11.71
2017-04-24T06:59:20.766Z,11.76
2017-04-24T07:00:02.074Z,11.86
2017-04-24T07:00:44.078Z,11.93
2017-04-24T07:01:24.541Z,11.99
2017-04-24T07:02:04.904Z,12.12
2017-04-24T07:02:45.252Z,12.23
2017-04-24T07:03:25.713Z,12.21
2017-04-24T07:04:06.151Z,12.35
2017-04-24T07:04:47.403Z,12.4
2017-04-24T07:05:27.825Z,12.5
2017-04-24T07:06:08.841Z,12.47
2017-04-24T07:06:49.794Z,12.63
2017-04-24T07:07:30.231Z,12.72
2017-04-24T07:08:10.625Z,12.65
2017-04-24T07:08:53.647Z,12.75
2017-04-24T07:09:34.032Z,12.76
2017-04-24T07:10:14.383Z,12.78
2017-04-24T07:10:54.796Z,12.94
2017-04-24T07:11:35.213Z,12.98
2017-04-24T07:12:16.522Z,12.94
2017-04-24T07:12:57.913Z,13.09
2017-04-24T07:13:40.065Z,13.05
2017-04-24T07:14:20.419Z,13.2
2017-04-24T07:15:03.523Z,13.19
2017-04-24T07:15:43.989Z,13.27
2017-04-24T07:16:25.719Z,13.27
2017-04-24T07:17:06.682Z,13.31
2017-04-24T07:17:47.728Z,13.28
2017-04-24T07:18:28.882Z,13.36
2017-04-24T07:19:10.134Z,13.33
2017-04-24T07:19:51.046Z,13.4
2017-04-24T07:20:31.495Z,13.5
2017-04-24T07:21:11.910Z,13.58
2017-04-24T07:21:52.303Z,13.64
2017-04-24T07:22:33.314Z,13.68
2017-04-24T07:23:16.117Z,13.86
2017-04-24T07:23:58.145Z,13.87
2017-04-24T07:24:38.552Z,13.93
2017-04-24T07:25:19.718Z,13.93
2017-04-24T07:26:00.875Z,13.91
2017-04-24T07:26:42.163Z,13.93
2017-04-24T07:27:22.541Z,13.95
2017-04-24T07:28:03.918Z,14.07
2017-04-24T07:28:44.269Z,14.08
2017-04-24T07:29:25.604Z,14.16
2017-04-24T07:30:06.553Z,14.15
2017-04-24T07:30:46.935Z,14.25
2017-04-24T07:31:27.400Z,14.31
2017-04-24T07:32:08.311Z,14.44
2017-04-24T07:32:50.334Z,14.52
2017-04-24T07:33:31.550Z,14.48
2017-04-24T07:34:11.958Z,14.61
2017-04-24T07:34:52.390Z,14.67
2017-04-24T07:35:33.739Z,14.77
2017-04-24T07:36:15.046Z,14.89
2017-04-24T07:36:55.503Z,15
2017-04-24T07:37:35.948Z,14.97
2017-04-24T07:38:16.318Z,15.18
2017-04-24T07:38:56.716Z,15.41
2017-04-24T07:39:37.202Z,15.55
2017-04-24T07:40:17.611Z,15.88
2017-04-24T07:40:58.661Z,16.41
2017-04-24T07:41:39.051Z,17.04
2017-04-24T07:42:19.482Z,17.84
2017-04-24T07:42:59.896Z,18.64
2017-04-24T07:43:40.319Z,19.39
2017-04-24T07:44:20.735Z,19.94
2017-04-24T07:45:01.151Z,20.75
2017-04-24T07:45:42.132Z,21.65
2017-04-24T07:46:23.487Z,22.49
2017-04-24T07:47:03.933Z,23.34
2017-04-24T07:47:44.322Z,24.16
2017-04-24T07:48:24.678Z,24.85
2017-04-24T07:49:05.876Z,25.51
2017-04-24T07:49:46.322Z,26.27
2017-04-24T07:50:26.706Z,26.93
2017-04-24T07:51:07.136Z,27.41
2017-04-24T07:51:47.532Z,27.72
2017-04-24T07:52:27.953Z,28.04
2017-04-24T07:53:08.359Z,28.37
2017-04-24T07:53:48.884Z,28.72
2017-04-24T07:54:30.158Z,29.05
2017-04-24T07:55:12.083Z,29.42
2017-04-24T07:55:52.500Z,29.81
2017-04-24T07:56:32.872Z,30.02
2017-04-24T07:57:13.319Z,30.35
2017-04-24T07:57:53.743Z,30.55
2017-04-24T07:58:34.130Z,30.59
2017-04-24T07:59:15.301Z,30.73
2017-04-24T07:59:57.589Z,30.74
2017-04-24T08:00:38.011Z,30.78
2017-04-24T08:01:19.200Z,30.71
2017-04-24T08:01:59.651Z,30.56
2017-04-24T08:02:40.054Z,30.58
2017-04-24T08:03:20.566Z,30.61
2017-04-24T08:04:04.568Z,30.63
2017-04-24T08:04:45.712Z,30.78
2017-04-24T08:05:26.122Z,30.93
2017-04-24T08:06:06.466Z,31.11
2017-04-24T08:06:46.950Z,31.08
2017-04-24T08:07:28.059Z,31.05
2017-04-24T08:08:09.120Z,31
2017-04-24T08:08:49.546Z,31.02
2017-04-24T08:09:29.930Z,31.05
2017-04-24T08:11:47.434Z,31.42
2017-04-24T08:12:37.090Z,31.41
2017-04-24T08:13:24.662Z,31.37
2017-04-24T08:14:14.297Z,31.23
2017-04-24T08:15:02.980Z,31
2017-04-24T08:15:53.202Z,30.58
2017-04-24T08:16:42.763Z,30.11
2017-04-24T08:17:31.993Z,29.8
2017-04-24T08:18:20.925Z,29.47
2017-04-24T08:19:10.272Z,29.4
2017-04-24T08:20:00.885Z,29.27
2017-04-24T08:20:49.895Z,29.32
2017-04-24T08:21:38.961Z,29.25
2017-04-24T08:22:31.272Z,29.39
2017-04-24T08:23:20.685Z,29.71
2017-04-24T08:24:09.393Z,29.92
2017-04-24T08:24:58.705Z,30.11
2017-04-24T08:25:49.854Z,30.21
2017-04-24T08:26:38.228Z,30.35
2017-04-24T08:27:27.991Z,30.39
2017-04-24T08:28:16.769Z,30.76
2017-04-24T08:29:07.132Z,31.05
2017-04-24T08:29:56.578Z,31.08
2017-04-24T08:30:47.039Z,31.05
2017-04-24T08:31:37.516Z,30.92
2017-04-24T08:32:26.588Z,30.78
2017-04-24T08:33:15.453Z,30.76
2017-04-24T08:34:04.183Z,31.04
2017-04-24T08:34:53.768Z,31.36
2017-04-24T08:35:45.903Z,31.51
2017-04-24T08:36:37.183Z,31.74
2017-04-24T08:37:27.299Z,31.77
2017-04-24T08:38:16.027Z,31.52
2017-04-24T08:39:05.621Z,31.42
2017-04-24T08:39:54.358Z,31.59
2017-04-24T08:40:43.528Z,31.93
2017-04-24T08:41:32.173Z,32.07
2017-04-24T08:42:20.918Z,32.26
2017-04-24T08:43:10.109Z,32.26
2017-04-24T08:43:59.161Z,32.11
2017-04-24T08:44:48.976Z,32.12
2017-04-24T08:45:39.154Z,32.08
2017-04-24T08:46:28.308Z,31.86
2017-04-24T08:47:16.507Z,31.74
2017-04-24T08:48:05.329Z,31.64
2017-04-24T08:48:50.758Z,31.54
2017-04-24T08:49:39.308Z,31.32
2017-04-24T08:50:29.534Z,31.11
2017-04-24T08:52:51.167Z,30.76
2017-04-24T08:53:40.069Z,31.04
2017-04-24T08:54:29.216Z,31.23
2017-04-24T08:55:19.778Z,31.54
2017-04-24T08:56:09.653Z,31.78
2017-04-24T08:56:58.277Z,32.12
2017-04-24T08:57:47.401Z,32.68
2017-04-24T08:58:36.123Z,33.23
2017-04-24T08:59:26.257Z,33.48
2017-04-24T09:00:15.160Z,33.47
2017-04-24T09:01:06.881Z,33.03
2017-04-24T09:01:57.039Z,32.31
2017-04-24T09:02:46.431Z,32.05
2017-04-24T09:03:35.341Z,31.85
2017-04-24T09:04:23.663Z,31.6
2017-04-24T09:05:13.595Z,31.05
2017-04-24T09:06:02.681Z,30.77
2017-04-24T09:06:52.629Z,30.58
2017-04-24T09:07:42.421Z,30.63
2017-04-24T09:08:32.184Z,30.52
2017-04-24T09:09:21.580Z,30.51
2017-04-24T09:10:11.373Z,30.48
2017-04-24T09:11:02.682Z,30.33
2017-04-24T09:11:52.429Z,30.44
2017-04-24T09:12:40.837Z,30.73
2017-04-24T09:13:29.695Z,31.08
2017-04-24T09:14:18.732Z,31.33
2017-04-24T09:15:07.986Z,31.15
2017-04-24T09:15:57.647Z,30.95
2017-04-24T09:16:47.758Z,30.77
2017-04-24T09:17:38.502Z,30.51
2017-04-24T09:18:27.212Z,30.11
2017-04-24T09:19:17.417Z,30.03
2017-04-24T09:20:07.767Z,30.35
2017-04-24T09:20:56.243Z,30.8
2017-04-24T09:21:46.680Z,31.45
2017-04-24T09:22:34.123Z,32
2017-04-24T09:23:25.806Z,32.46
2017-04-24T09:25:47.324Z,33.87
2017-04-24T09:26:36.567Z,34.14
2017-04-24T09:27:27.884Z,34.56
2017-04-24T09:28:16.850Z,34.79
2017-04-24T09:29:06.541Z,35.03
2017-04-24T09:29:55.975Z,35.3
2017-04-24T09:30:46.024Z,35.5
2017-04-24T09:31:37.338Z,35.6
2017-04-24T09:32:26.565Z,35.64
2017-04-24T09:33:15.803Z,35.76
2017-04-24T09:34:04.503Z,35.76
2017-04-24T09:34:53.685Z,35.84
2017-04-24T09:35:42.709Z,35.69
2017-04-24T09:36:31.199Z,35.52
2017-04-24T09:37:20.611Z,35.45
2017-04-24T09:38:09.251Z,35.35
2017-04-24T09:38:59.553Z,35.38
2017-04-24T09:39:49.515Z,35.52
2017-04-24T09:40:37.526Z,35.75
2017-04-24T09:41:26.056Z,35.78
2017-04-24T09:42:18.544Z,35.84
2017-04-24T09:43:07.371Z,35.78
2017-04-24T09:43:57.190Z,35.5
2017-04-24T09:44:46.206Z,35.5
2017-04-24T09:45:35.011Z,35.54
2017-04-24T09:46:23.827Z,35.64
2017-04-24T09:47:14.336Z,35.74
2017-04-24T09:48:04.361Z,36.05
2017-04-24T09:48:53.228Z,36.25
2017-04-24T09:49:42.618Z,36.55
2017-04-24T09:50:32.538Z,36.57
2017-04-24T09:51:22.067Z,36.54
2017-04-24T09:52:11.815Z,36.32
2017-04-24T09:52:59.601Z,36.06
2017-04-24T09:53:52.001Z,35.93
2017-04-24T09:54:43.215Z,35.78
2017-04-24T09:55:35.701Z,35.79
2017-04-24T09:56:25.392Z,35.9
2017-04-24T09:57:15.606Z,36.14
2017-04-24T09:58:04.974Z,36.45
2017-04-24T09:58:55.375Z,36.67
2017-04-24T09:59:44.054Z,37.1
2017-04-24T10:00:33.591Z,37.31
2017-04-24T10:01:24.119Z,37.19
2017-04-24T10:02:13.493Z,37.28
2017-04-24T10:03:01.926Z,37.37
2017-04-24T10:03:50.489Z,37.72
2017-04-24T10:04:39.096Z,37.68
2017-04-24T10:05:26.338Z,37.86
2017-04-24T10:06:15.268Z,37.73
2017-04-24T10:07:03.835Z,37.91
2017-04-24T10:07:52.373Z,38.09
2017-04-24T10:08:37.072Z,38.38
2017-04-24T10:09:17.565Z,38.5
2017-04-24T10:09:57.985Z,38.66
2017-04-24T10:10:38.367Z,38.81
2017-04-24T10:11:18.772Z,38.95
2017-04-24T10:12:00.155Z,38.98
2017-04-24T10:12:40.594Z,38.9
2017-04-24T10:13:21.796Z,38.79
2017-04-24T10:14:02.040Z,38.39
2017-04-24T10:14:42.455Z,37.91
2017-04-24T10:15:26.642Z,37.38
2017-04-24T10:16:07.067Z,36.91
2017-04-24T10:16:48.076Z,36.73
2017-04-24T10:17:29.257Z,36.59
2017-04-24T10:18:09.706Z,36.59
2017-04-24T10:18:50.096Z,36.53
2017-04-24T10:19:30.520Z,36.44
2017-04-24T10:20:10.959Z,36.48
2017-04-24T10:20:51.409Z,36.7
2017-04-24T10:21:31.805Z,36.88
2017-04-24T10:22:13.132Z,36.7
2017-04-24T10:22:53.558Z,36.55
2017-04-24T10:23:33.954Z,36.44
2017-04-24T10:24:14.371Z,36.38
2017-04-24T10:24:54.861Z,36.24
2017-04-24T10:25:35.260Z,36.14
2017-04-24T10:26:15.687Z,35.88
2017-04-24T10:26:56.092Z,35.54
2017-04-24T10:27:36.541Z,35.23
2017-04-24T10:28:17.452Z,35.13
2017-04-24T10:28:57.924Z,35.34
2017-04-24T10:29:38.330Z,35.45
2017-04-24T10:30:18.787Z,35.61
2017-04-24T10:30:59.171Z,35.74
2017-04-24T10:31:40.473Z,35.87
2017-04-24T10:32:21.617Z,36
2017-04-24T10:33:01.977Z,36.13
2017-04-24T10:33:44.967Z,36.44
2017-04-24T10:34:25.427Z,36.8
2017-04-24T10:35:06.583Z,36.84
2017-04-24T10:35:46.945Z,36.81
2017-04-24T10:36:27.360Z,36.72
2017-04-24T10:37:07.789Z,36.47
2017-04-24T10:37:48.194Z,36.14
2017-04-24T10:38:28.651Z,35.79
2017-04-24T10:39:09.049Z,35.52
2017-04-24T10:39:49.460Z,35.31
2017-04-24T10:40:29.887Z,35.03
2017-04-24T10:41:10.288Z,35.13
2017-04-24T10:41:50.772Z,35.47
2017-04-24T10:42:31.195Z,35.94
2017-04-24T10:43:11.651Z,36.67
2017-04-24T10:43:52.678Z,37.25
2017-04-24T10:44:33.068Z,38
2017-04-24T10:45:13.521Z,38.72
2017-04-24T10:45:53.910Z,39.42
2017-04-24T10:46:34.369Z,39.82
2017-04-24T10:47:14.829Z,40.34
2017-04-24T10:47:55.224Z,40.61
2017-04-24T10:48:36.449Z,40.83
2017-04-24T10:49:17.515Z,41.03
2017-04-24T10:49:57.957Z,41.11
2017-04-24T10:50:38.325Z,41.03
2017-04-24T10:51:18.756Z,41.08
2017-04-24T10:51:59.193Z,41.39
2017-04-24T10:52:39.621Z,41.63
2017-04-24T10:53:20.953Z,41.73
2017-04-24T10:54:01.982Z,41.68
2017-04-24T10:54:42.440Z,41.81
2017-04-24T10:55:22.859Z,41.99
2017-04-24T10:56:03.303Z,42.25
2017-04-24T10:56:43.713Z,42.33
2017-04-24T10:57:24.123Z,42.61
2017-04-24T10:58:04.539Z,42.74
2017-04-24T10:58:45.932Z,42.78
2017-04-24T10:59:27.095Z,42.75
2017-04-24T11:00:07.541Z,42.73
2017-04-24T11:00:48.524Z,42.52
2017-04-24T11:01:28.989Z,42.52
2017-04-24T11:02:09.444Z,42.47
2017-04-24T11:02:50.669Z,42.15
2017-04-24T11:03:32.026Z,41.86
2017-04-24T11:04:12.429Z,41.48
2017-04-24T11:04:52.857Z,41.39
2017-04-24T11:05:33.276Z,41.33
2017-04-24T11:06:13.719Z,41.45
2017-04-24T11:06:54.147Z,41.36
2017-04-24T11:07:34.533Z,41.24
2017-04-24T11:08:14.985Z,41
2017-04-24T11:08:56.201Z,40.88
2017-04-24T11:09:36.619Z,40.46
2017-04-24T11:10:17.149Z,39.7
2017-04-24T11:10:58.178Z,39.05
2017-04-24T11:11:38.574Z,38.38
2017-04-24T11:12:19.013Z,38.04
2017-04-24T11:12:59.508Z,37.76
2017-04-24T11:13:42.436Z,37.75
2017-04-24T11:14:22.819Z,38.04
2017-04-24T11:15:03.308Z,38.42
2017-04-24T11:15:43.867Z,38.62
2017-04-24T11:17:24.967Z,39.12
2017-04-24T11:18:16.922Z,39.15
2017-04-24T11:19:05.726Z,39.49
2017-04-24T11:19:56.142Z,39.86
2017-04-24T11:20:45.234Z,40.39
2017-04-24T11:21:33.674Z,40.78
2017-04-24T11:22:24.313Z,41.05
2017-04-24T11:23:13.179Z,40.99
2017-04-24T11:24:03.682Z,41.12
2017-04-24T11:24:53.561Z,41.1
2017-04-24T11:25:45.204Z,41.18
2017-04-24T11:26:35.085Z,41.32
2017-04-24T11:27:24.721Z,41.48
2017-04-24T11:28:15.925Z,41.81
2017-04-24T11:29:07.471Z,41.81
2017-04-24T11:29:57.198Z,41.93
2017-04-24T11:30:49.339Z,42.07
2017-04-24T11:31:41.377Z,42.2
2017-04-24T11:32:33.210Z,42.2
2017-04-24T11:33:24.090Z,42.14
2017-04-24T11:34:18.430Z,41.7
2017-04-24T11:35:09.967Z,41.52
2017-04-24T11:35:58.918Z,41.37